sensor_id;sensor_type;location;lat;lon;timestamp;temperature;humidity
49042;DHT22;34859;51.608;11.462;2023-05-07T00:00:29;10.20;99.90
49042;DHT22;34859;51.608;11.462;2023-05-07T00:02:55;10.20;99.90
49042;DHT22;34859;51.608;11.462;2023-05-07T00:05:20;10.20;99.90
49042;DHT22;34859;51.608;11.462;2023-05-07T00:07:49;10.20;99.90
49042;DHT22;34859;51.608;11.462;2023-05-07T00:10:17;10.20;99.90
49042;DHT22;34859;51.608;11.462;2023-05-07T00:12:42;10.30;99.90
49042;DHT22;34859;51.608;11.462;2023-05-07T00:15:08;10.30;99.90
49042;DHT22;34859;51.608;11.462;2023-05-07T00:17:34;10.30;99.90
49042;DHT22;34859;51.608;11.462;2023-05-07T00:20:03;10.20;99.90
49042;DHT22;34859;51.608;11.462;2023-05-07T00:22:31;10.20;99.90
49042;DHT22;34859;51.608;11.462;2023-05-07T00:24:58;10.10;99.90
49042;DHT22;34859;51.608;11.462;2023-05-07T00:27:27;10.20;99.90
49042;DHT22;34859;51.608;11.462;2023-05-07T00:29:54;10.20;99.90
49042;DHT22;34859;51.608;11.462;2023-05-07T00:32:20;10.20;99.90
49042;DHT22;34859;51.608;11.462;2023-05-07T00:34:46;10.10;99.90
49042;DHT22;34859;51.608;11.462;2023-05-07T00:37:12;10.20;99.90
49042;DHT22;34859;51.608;11.462;2023-05-07T00:39:38;10.20;99.90
49042;DHT22;34859;51.608;11.462;2023-05-07T00:42:03;10.10;99.90
49042;DHT22;34859;51.608;11.462;2023-05-07T00:44:29;10.10;99.90
49042;DHT22;34859;51.608;11.462;2023-05-07T00:46:55;10.20;99.90
49042;DHT22;34859;51.608;11.462;2023-05-07T00:49:42;10.20;99.90
49042;DHT22;34859;51.608;11.462;2023-05-07T00:52:09;10.10;99.90
49042;DHT22;34859;51.608;11.462;2023-05-07T00:54:35;10.20;99.90
49042;DHT22;34859;51.608;11.462;2023-05-07T00:57:01;10.10;99.90
49042;DHT22;34859;51.608;11.462;2023-05-07T00:59:28;10.10;99.90
49042;DHT22;34859;51.608;11.462;2023-05-07T01:01:53;10.10;99.90
49042;DHT22;34859;51.608;11.462;2023-05-07T01:04:19;10.10;99.90
49042;DHT22;34859;51.608;11.462;2023-05-07T01:06:44;10.00;99.90
49042;DHT22;34859;51.608;11.462;2023-05-07T01:09:10;10.00;99.90
49042;DHT22;34859;51.608;11.462;2023-05-07T01:11:37;10.00;99.90
49042;DHT22;34859;51.608;11.462;2023-05-07T01:14:03;9.90;99.90
49042;DHT22;34859;51.608;11.462;2023-05-07T01:16:29;9.80;99.90
49042;DHT22;34859;51.608;11.462;2023-05-07T01:18:55;9.90;99.90
49042;DHT22;34859;51.608;11.462;2023-05-07T01:21:23;9.80;99.90
49042;DHT22;34859;51.608;11.462;2023-05-07T01:23:50;9.80;99.90
49042;DHT22;34859;51.608;11.462;2023-05-07T01:26:16;9.80;99.90
49042;DHT22;34859;51.608;11.462;2023-05-07T01:28:45;9.80;99.90
49042;DHT22;34859;51.608;11.462;2023-05-07T01:31:10;9.80;99.90
49042;DHT22;34859;51.608;11.462;2023-05-07T01:33:37;9.80;99.90
49042;DHT22;34859;51.608;11.462;2023-05-07T01:36:03;9.80;99.90
49042;DHT22;34859;51.608;11.462;2023-05-07T01:38:31;9.80;99.90
49042;DHT22;34859;51.608;11.462;2023-05-07T01:40:58;9.80;99.90
49042;DHT22;34859;51.608;11.462;2023-05-07T01:43:23;9.80;99.90
49042;DHT22;34859;51.608;11.462;2023-05-07T01:45:49;9.70;99.90
49042;DHT22;34859;51.608;11.462;2023-05-07T01:48:15;9.70;99.90
49042;DHT22;34859;51.608;11.462;2023-05-07T01:50:41;9.80;99.90
49042;DHT22;34859;51.608;11.462;2023-05-07T01:53:07;9.80;99.90
49042;DHT22;34859;51.608;11.462;2023-05-07T01:55:32;9.80;99.90
49042;DHT22;34859;51.608;11.462;2023-05-07T01:57:58;9.80;99.90
49042;DHT22;34859;51.608;11.462;2023-05-07T02:00:24;9.80;99.90
49042;DHT22;34859;51.608;11.462;2023-05-07T02:02:49;9.80;99.90
49042;DHT22;34859;51.608;11.462;2023-05-07T02:05:15;9.80;99.90
49042;DHT22;34859;51.608;11.462;2023-05-07T02:07:40;9.80;99.90
49042;DHT22;34859;51.608;11.462;2023-05-07T02:10:07;9.70;99.90
49042;DHT22;34859;51.608;11.462;2023-05-07T02:12:32;9.70;99.90
49042;DHT22;34859;51.608;11.462;2023-05-07T02:14:59;9.80;99.90
49042;DHT22;34859;51.608;11.462;2023-05-07T02:17:25;9.80;99.90
49042;DHT22;34859;51.608;11.462;2023-05-07T02:19:51;9.60;99.90
49042;DHT22;34859;51.608;11.462;2023-05-07T02:22:16;9.60;99.90
49042;DHT22;34859;51.608;11.462;2023-05-07T02:24:42;9.50;99.90
49042;DHT22;34859;51.608;11.462;2023-05-07T02:27:08;9.60;99.90
49042;DHT22;34859;51.608;11.462;2023-05-07T02:29:33;9.50;99.90
49042;DHT22;34859;51.608;11.462;2023-05-07T02:31:59;9.50;99.90
49042;DHT22;34859;51.608;11.462;2023-05-07T02:34:25;9.50;99.90
49042;DHT22;34859;51.608;11.462;2023-05-07T02:36:50;9.40;99.90
49042;DHT22;34859;51.608;11.462;2023-05-07T02:39:19;9.40;99.90
49042;DHT22;34859;51.608;11.462;2023-05-07T02:41:45;9.50;99.90
49042;DHT22;34859;51.608;11.462;2023-05-07T02:44:11;9.40;99.90
49042;DHT22;34859;51.608;11.462;2023-05-07T02:46:37;9.40;99.90
49042;DHT22;34859;51.608;11.462;2023-05-07T02:49:03;9.40;99.90
49042;DHT22;34859;51.608;11.462;2023-05-07T02:51:29;9.40;99.90
49042;DHT22;34859;51.608;11.462;2023-05-07T02:53:57;9.50;99.90
49042;DHT22;34859;51.608;11.462;2023-05-07T02:56:22;9.50;99.90
49042;DHT22;34859;51.608;11.462;2023-05-07T02:58:48;9.40;99.90
49042;DHT22;34859;51.608;11.462;2023-05-07T03:01:14;9.40;99.90
49042;DHT22;34859;51.608;11.462;2023-05-07T03:03:40;9.50;99.90
49042;DHT22;34859;51.608;11.462;2023-05-07T03:06:07;9.50;99.90
49042;DHT22;34859;51.608;11.462;2023-05-07T03:08:32;9.50;99.90
49042;DHT22;34859;51.608;11.462;2023-05-07T03:10:58;9.50;99.90
49042;DHT22;34859;51.608;11.462;2023-05-07T03:13:44;9.50;99.90
49042;DHT22;34859;51.608;11.462;2023-05-07T03:16:09;9.50;99.90
49042;DHT22;34859;51.608;11.462;2023-05-07T03:18:37;9.50;99.90
49042;DHT22;34859;51.608;11.462;2023-05-07T03:21:02;9.50;99.90
49042;DHT22;34859;51.608;11.462;2023-05-07T03:23:28;9.50;99.90
49042;DHT22;34859;51.608;11.462;2023-05-07T03:25:53;9.50;99.90
49042;DHT22;34859;51.608;11.462;2023-05-07T03:28:19;9.50;99.90
49042;DHT22;34859;51.608;11.462;2023-05-07T03:30:45;9.50;99.90
49042;DHT22;34859;51.608;11.462;2023-05-07T03:33:11;9.50;99.90
49042;DHT22;34859;51.608;11.462;2023-05-07T03:35:37;9.50;99.90
49042;DHT22;34859;51.608;11.462;2023-05-07T03:38:02;9.50;99.90
49042;DHT22;34859;51.608;11.462;2023-05-07T03:40:28;9.50;99.90
49042;DHT22;34859;51.608;11.462;2023-05-07T03:42:53;9.50;99.90
49042;DHT22;34859;51.608;11.462;2023-05-07T03:45:19;9.50;99.90
49042;DHT22;34859;51.608;11.462;2023-05-07T03:47:45;9.50;99.90
49042;DHT22;34859;51.608;11.462;2023-05-07T03:50:10;9.50;99.90
49042;DHT22;34859;51.608;11.462;2023-05-07T03:52:37;9.40;99.90
49042;DHT22;34859;51.608;11.462;2023-05-07T03:55:02;9.50;99.90
49042;DHT22;34859;51.608;11.462;2023-05-07T03:57:28;9.40;99.90
49042;DHT22;34859;51.608;11.462;2023-05-07T03:59:53;9.50;99.90
49042;DHT22;34859;51.608;11.462;2023-05-07T04:02:19;9.50;99.90
49042;DHT22;34859;51.608;11.462;2023-05-07T04:04:45;9.50;99.90
49042;DHT22;34859;51.608;11.462;2023-05-07T04:07:10;9.40;99.90
49042;DHT22;34859;51.608;11.462;2023-05-07T04:09:36;9.40;99.90
49042;DHT22;34859;51.608;11.462;2023-05-07T04:12:02;9.40;99.90
49042;DHT22;34859;51.608;11.462;2023-05-07T04:14:48;9.40;99.90
49042;DHT22;34859;51.608;11.462;2023-05-07T04:17:33;9.40;99.90
49042;DHT22;34859;51.608;11.462;2023-05-07T04:20:19;9.40;99.90
49042;DHT22;34859;51.608;11.462;2023-05-07T04:23:04;9.50;99.90
49042;DHT22;34859;51.608;11.462;2023-05-07T04:25:30;9.50;99.90
49042;DHT22;34859;51.608;11.462;2023-05-07T04:27:57;9.50;99.90
49042;DHT22;34859;51.608;11.462;2023-05-07T04:30:24;9.50;99.90
49042;DHT22;34859;51.608;11.462;2023-05-07T04:32:49;9.50;99.90
49042;DHT22;34859;51.608;11.462;2023-05-07T04:35:15;9.60;99.90
49042;DHT22;34859;51.608;11.462;2023-05-07T04:37:41;9.60;99.90
49042;DHT22;34859;51.608;11.462;2023-05-07T04:40:07;9.60;99.90
49042;DHT22;34859;51.608;11.462;2023-05-07T04:42:51;9.60;99.90
49042;DHT22;34859;51.608;11.462;2023-05-07T04:45:17;9.60;99.90
49042;DHT22;34859;51.608;11.462;2023-05-07T04:47:42;9.70;99.90
49042;DHT22;34859;51.608;11.462;2023-05-07T04:50:11;9.70;99.90
49042;DHT22;34859;51.608;11.462;2023-05-07T04:52:37;9.70;99.90
49042;DHT22;34859;51.608;11.462;2023-05-07T04:55:03;9.80;99.90
49042;DHT22;34859;51.608;11.462;2023-05-07T04:57:30;9.80;99.90
49042;DHT22;34859;51.608;11.462;2023-05-07T04:59:56;9.80;99.90
49042;DHT22;34859;51.608;11.462;2023-05-07T05:02:22;9.80;99.90
49042;DHT22;34859;51.608;11.462;2023-05-07T05:04:50;9.80;99.90
49042;DHT22;34859;51.608;11.462;2023-05-07T05:07:17;9.70;99.90
49042;DHT22;34859;51.608;11.462;2023-05-07T05:09:42;9.70;99.90
49042;DHT22;34859;51.608;11.462;2023-05-07T05:12:08;9.80;99.90
49042;DHT22;34859;51.608;11.462;2023-05-07T05:14:34;9.80;99.90
49042;DHT22;34859;51.608;11.462;2023-05-07T05:16:59;9.80;99.90
49042;DHT22;34859;51.608;11.462;2023-05-07T05:19:25;9.80;99.90
49042;DHT22;34859;51.608;11.462;2023-05-07T05:21:50;9.80;99.90
49042;DHT22;34859;51.608;11.462;2023-05-07T05:24:17;9.90;99.90
49042;DHT22;34859;51.608;11.462;2023-05-07T05:26:43;9.90;99.90
49042;DHT22;34859;51.608;11.462;2023-05-07T05:29:10;9.80;99.90
49042;DHT22;34859;51.608;11.462;2023-05-07T05:31:36;9.80;99.90
49042;DHT22;34859;51.608;11.462;2023-05-07T05:34:02;9.80;99.90
49042;DHT22;34859;51.608;11.462;2023-05-07T05:36:29;9.80;99.90
49042;DHT22;34859;51.608;11.462;2023-05-07T05:38:55;9.80;99.90
49042;DHT22;34859;51.608;11.462;2023-05-07T05:41:20;9.90;99.90
49042;DHT22;34859;51.608;11.462;2023-05-07T05:43:48;9.80;99.90
49042;DHT22;34859;51.608;11.462;2023-05-07T05:46:14;9.80;99.90
49042;DHT22;34859;51.608;11.462;2023-05-07T05:48:40;9.80;99.90
49042;DHT22;34859;51.608;11.462;2023-05-07T05:51:07;9.80;99.90
49042;DHT22;34859;51.608;11.462;2023-05-07T05:53:33;9.80;99.90
49042;DHT22;34859;51.608;11.462;2023-05-07T05:55:58;9.80;99.90
49042;DHT22;34859;51.608;11.462;2023-05-07T05:58:24;9.90;99.90
49042;DHT22;34859;51.608;11.462;2023-05-07T06:00:50;9.90;99.90
49042;DHT22;34859;51.608;11.462;2023-05-07T06:03:17;10.00;99.90
49042;DHT22;34859;51.608;11.462;2023-05-07T06:05:43;10.00;99.90
49042;DHT22;34859;51.608;11.462;2023-05-07T06:08:09;10.00;99.90
49042;DHT22;34859;51.608;11.462;2023-05-07T06:10:35;10.00;99.90
49042;DHT22;34859;51.608;11.462;2023-05-07T06:13:01;10.00;99.90
49042;DHT22;34859;51.608;11.462;2023-05-07T06:15:28;10.10;99.90
49042;DHT22;34859;51.608;11.462;2023-05-07T06:17:54;10.10;99.90
49042;DHT22;34859;51.608;11.462;2023-05-07T06:20:22;10.20;99.90
49042;DHT22;34859;51.608;11.462;2023-05-07T06:22:52;10.10;99.90
49042;DHT22;34859;51.608;11.462;2023-05-07T06:25:35;10.10;99.90
49042;DHT22;34859;51.608;11.462;2023-05-07T06:28:21;10.20;99.90
49042;DHT22;34859;51.608;11.462;2023-05-07T06:30:47;10.30;99.90
49042;DHT22;34859;51.608;11.462;2023-05-07T06:33:15;10.40;99.90
49042;DHT22;34859;51.608;11.462;2023-05-07T06:35:41;10.40;99.90
49042;DHT22;34859;51.608;11.462;2023-05-07T06:38:07;10.40;99.90
49042;DHT22;34859;51.608;11.462;2023-05-07T06:40:33;10.40;99.90
49042;DHT22;34859;51.608;11.462;2023-05-07T06:42:59;10.40;99.90
49042;DHT22;34859;51.608;11.462;2023-05-07T06:45:27;10.40;99.90
49042;DHT22;34859;51.608;11.462;2023-05-07T06:47:53;10.40;99.90
49042;DHT22;34859;51.608;11.462;2023-05-07T06:50:18;10.40;99.90
49042;DHT22;34859;51.608;11.462;2023-05-07T06:52:44;10.30;99.90
49042;DHT22;34859;51.608;11.462;2023-05-07T06:55:10;10.30;99.90
49042;DHT22;34859;51.608;11.462;2023-05-07T06:57:37;10.30;99.90
49042;DHT22;34859;51.608;11.462;2023-05-07T07:00:03;10.30;99.90
49042;DHT22;34859;51.608;11.462;2023-05-07T07:02:29;10.30;99.90
49042;DHT22;34859;51.608;11.462;2023-05-07T07:04:57;10.30;99.90
49042;DHT22;34859;51.608;11.462;2023-05-07T07:07:22;10.40;99.90
49042;DHT22;34859;51.608;11.462;2023-05-07T07:09:49;10.40;99.90
49042;DHT22;34859;51.608;11.462;2023-05-07T07:12:14;10.50;99.90
49042;DHT22;34859;51.608;11.462;2023-05-07T07:14:40;10.60;99.90
49042;DHT22;34859;51.608;11.462;2023-05-07T07:17:07;10.70;99.90
49042;DHT22;34859;51.608;11.462;2023-05-07T07:19:32;10.70;99.90
49042;DHT22;34859;51.608;11.462;2023-05-07T07:21:58;10.80;99.90
49042;DHT22;34859;51.608;11.462;2023-05-07T07:24:23;10.80;99.90
49042;DHT22;34859;51.608;11.462;2023-05-07T07:26:49;10.90;99.90
49042;DHT22;34859;51.608;11.462;2023-05-07T07:29:14;10.90;99.90
49042;DHT22;34859;51.608;11.462;2023-05-07T07:31:40;10.90;99.90
49042;DHT22;34859;51.608;11.462;2023-05-07T07:34:10;10.80;99.90
49042;DHT22;34859;51.608;11.462;2023-05-07T07:36:37;10.80;99.90
49042;DHT22;34859;51.608;11.462;2023-05-07T07:39:02;10.80;99.90
49042;DHT22;34859;51.608;11.462;2023-05-07T07:41:28;10.80;99.90
49042;DHT22;34859;51.608;11.462;2023-05-07T07:43:53;10.70;99.90
49042;DHT22;34859;51.608;11.462;2023-05-07T07:46:19;10.70;99.90
49042;DHT22;34859;51.608;11.462;2023-05-07T07:48:45;10.70;99.90
49042;DHT22;34859;51.608;11.462;2023-05-07T07:51:11;10.70;99.90
49042;DHT22;34859;51.608;11.462;2023-05-07T07:53:36;10.70;99.90
49042;DHT22;34859;51.608;11.462;2023-05-07T07:56:02;10.80;99.90
49042;DHT22;34859;51.608;11.462;2023-05-07T07:58:28;10.70;99.90
49042;DHT22;34859;51.608;11.462;2023-05-07T08:00:54;10.80;99.90
49042;DHT22;34859;51.608;11.462;2023-05-07T08:03:41;10.80;99.90
49042;DHT22;34859;51.608;11.462;2023-05-07T08:06:08;10.80;99.90
49042;DHT22;34859;51.608;11.462;2023-05-07T08:08:33;10.70;99.90
49042;DHT22;34859;51.608;11.462;2023-05-07T08:10:59;10.80;99.90
49042;DHT22;34859;51.608;11.462;2023-05-07T08:13:25;10.80;99.90
49042;DHT22;34859;51.608;11.462;2023-05-07T08:15:50;10.80;99.90
49042;DHT22;34859;51.608;11.462;2023-05-07T08:18:17;10.90;99.90
49042;DHT22;34859;51.608;11.462;2023-05-07T08:20:42;11.00;99.90
49042;DHT22;34859;51.608;11.462;2023-05-07T08:23:08;11.10;99.90
49042;DHT22;34859;51.608;11.462;2023-05-07T08:25:34;11.10;99.90
49042;DHT22;34859;51.608;11.462;2023-05-07T08:28:00;11.10;99.90
49042;DHT22;34859;51.608;11.462;2023-05-07T08:30:28;11.10;99.90
49042;DHT22;34859;51.608;11.462;2023-05-07T08:32:54;11.10;99.90
49042;DHT22;34859;51.608;11.462;2023-05-07T08:35:20;11.20;99.90
49042;DHT22;34859;51.608;11.462;2023-05-07T08:37:46;11.10;99.90
49042;DHT22;34859;51.608;11.462;2023-05-07T08:40:12;11.10;99.90
49042;DHT22;34859;51.608;11.462;2023-05-07T08:42:38;11.00;99.90
49042;DHT22;34859;51.608;11.462;2023-05-07T08:45:08;11.00;99.90
49042;DHT22;34859;51.608;11.462;2023-05-07T08:47:38;11.00;99.90
49042;DHT22;34859;51.608;11.462;2023-05-07T08:50:05;11.00;99.90
49042;DHT22;34859;51.608;11.462;2023-05-07T08:52:31;11.00;99.90
49042;DHT22;34859;51.608;11.462;2023-05-07T08:54:57;10.90;99.90
49042;DHT22;34859;51.608;11.462;2023-05-07T08:57:22;10.90;99.90
49042;DHT22;34859;51.608;11.462;2023-05-07T08:59:49;11.00;99.90
49042;DHT22;34859;51.608;11.462;2023-05-07T09:02:17;11.00;99.90
49042;DHT22;34859;51.608;11.462;2023-05-07T09:04:43;11.00;99.90
49042;DHT22;34859;51.608;11.462;2023-05-07T09:07:09;11.00;99.90
49042;DHT22;34859;51.608;11.462;2023-05-07T09:09:34;11.00;99.90
49042;DHT22;34859;51.608;11.462;2023-05-07T09:12:00;11.00;99.90
49042;DHT22;34859;51.608;11.462;2023-05-07T09:14:28;11.00;99.90
49042;DHT22;34859;51.608;11.462;2023-05-07T09:16:53;10.90;99.90
49042;DHT22;34859;51.608;11.462;2023-05-07T09:19:28;10.90;99.90
49042;DHT22;34859;51.608;11.462;2023-05-07T09:22:00;10.90;99.90
49042;DHT22;34859;51.608;11.462;2023-05-07T09:24:28;10.90;99.90
49042;DHT22;34859;51.608;11.462;2023-05-07T09:27:00;10.90;99.90
49042;DHT22;34859;51.608;11.462;2023-05-07T09:29:27;10.90;99.90
49042;DHT22;34859;51.608;11.462;2023-05-07T09:32:01;10.90;99.90
49042;DHT22;34859;51.608;11.462;2023-05-07T09:34:28;11.00;99.90
49042;DHT22;34859;51.608;11.462;2023-05-07T09:36:54;11.00;99.90
49042;DHT22;34859;51.608;11.462;2023-05-07T09:39:46;11.00;99.90
49042;DHT22;34859;51.608;11.462;2023-05-07T09:42:12;11.10;99.90
49042;DHT22;34859;51.608;11.462;2023-05-07T09:44:38;11.10;99.90
49042;DHT22;34859;51.608;11.462;2023-05-07T09:47:04;11.10;99.90
49042;DHT22;34859;51.608;11.462;2023-05-07T09:49:30;11.10;99.90
49042;DHT22;34859;51.608;11.462;2023-05-07T09:51:59;11.20;99.90
49042;DHT22;34859;51.608;11.462;2023-05-07T09:54:30;11.20;99.90
49042;DHT22;34859;51.608;11.462;2023-05-07T09:56:58;11.30;99.90
49042;DHT22;34859;51.608;11.462;2023-05-07T09:59:24;11.40;99.90
49042;DHT22;34859;51.608;11.462;2023-05-07T10:01:49;11.40;99.90
49042;DHT22;34859;51.608;11.462;2023-05-07T10:04:17;11.50;99.90
49042;DHT22;34859;51.608;11.462;2023-05-07T10:06:44;11.60;99.90
49042;DHT22;34859;51.608;11.462;2023-05-07T10:09:10;11.50;99.90
49042;DHT22;34859;51.608;11.462;2023-05-07T10:11:37;11.50;99.90
49042;DHT22;34859;51.608;11.462;2023-05-07T10:14:03;11.50;99.90
49042;DHT22;34859;51.608;11.462;2023-05-07T10:16:31;11.60;99.90
49042;DHT22;34859;51.608;11.462;2023-05-07T10:19:00;11.60;99.90
49042;DHT22;34859;51.608;11.462;2023-05-07T10:21:27;11.60;99.90
49042;DHT22;34859;51.608;11.462;2023-05-07T10:23:59;11.70;99.90
49042;DHT22;34859;51.608;11.462;2023-05-07T10:26:47;11.80;99.90
49042;DHT22;34859;51.608;11.462;2023-05-07T10:31:52;11.80;99.90
49042;DHT22;34859;51.608;11.462;2023-05-07T10:34:21;11.80;99.90
49042;DHT22;34859;51.608;11.462;2023-05-07T10:36:48;12.00;99.90
49042;DHT22;34859;51.608;11.462;2023-05-07T10:39:14;12.00;99.90
49042;DHT22;34859;51.608;11.462;2023-05-07T10:41:40;11.90;99.90
49042;DHT22;34859;51.608;11.462;2023-05-07T10:44:06;11.80;99.90
49042;DHT22;34859;51.608;11.462;2023-05-07T10:46:32;11.80;99.90
49042;DHT22;34859;51.608;11.462;2023-05-07T10:51:29;11.90;99.90
49042;DHT22;34859;51.608;11.462;2023-05-07T10:56:35;12.00;99.90
49042;DHT22;34859;51.608;11.462;2023-05-07T11:01:54;12.10;99.90
49042;DHT22;34859;51.608;11.462;2023-05-07T11:04:19;12.20;99.90
49042;DHT22;34859;51.608;11.462;2023-05-07T11:10:06;12.20;99.90
49042;DHT22;34859;51.608;11.462;2023-05-07T11:15:12;12.10;99.90
49042;DHT22;34859;51.608;11.462;2023-05-07T11:17:57;12.10;99.90
49042;DHT22;34859;51.608;11.462;2023-05-07T11:23:16;12.10;99.90
49042;DHT22;34859;51.608;11.462;2023-05-07T11:26:04;12.10;99.90
49042;DHT22;34859;51.608;11.462;2023-05-07T11:28:30;12.00;99.90
49042;DHT22;34859;51.608;11.462;2023-05-07T11:30:57;12.00;99.90
49042;DHT22;34859;51.608;11.462;2023-05-07T11:33:23;12.10;99.90
49042;DHT22;34859;51.608;11.462;2023-05-07T11:35:50;12.10;99.90
49042;DHT22;34859;51.608;11.462;2023-05-07T11:38:19;12.20;99.90
49042;DHT22;34859;51.608;11.462;2023-05-07T11:40:51;12.20;99.90
49042;DHT22;34859;51.608;11.462;2023-05-07T11:43:17;12.20;99.90
49042;DHT22;34859;51.608;11.462;2023-05-07T11:45:44;12.30;99.90
49042;DHT22;34859;51.608;11.462;2023-05-07T11:48:10;12.30;99.90
49042;DHT22;34859;51.608;11.462;2023-05-07T11:50:36;12.30;99.90
49042;DHT22;34859;51.608;11.462;2023-05-07T11:53:15;12.10;99.90
49042;DHT22;34859;51.608;11.462;2023-05-07T11:55:42;12.10;99.90
49042;DHT22;34859;51.608;11.462;2023-05-07T11:58:09;12.10;99.90
49042;DHT22;34859;51.608;11.462;2023-05-07T12:00:37;12.10;99.90
49042;DHT22;34859;51.608;11.462;2023-05-07T12:03:03;12.10;99.90
49042;DHT22;34859;51.608;11.462;2023-05-07T12:05:29;12.10;99.90
49042;DHT22;34859;51.608;11.462;2023-05-07T12:07:57;12.20;99.90
49042;DHT22;34859;51.608;11.462;2023-05-07T12:10:23;12.20;99.90
49042;DHT22;34859;51.608;11.462;2023-05-07T12:12:50;12.20;99.90
49042;DHT22;34859;51.608;11.462;2023-05-07T12:15:22;12.20;99.90
49042;DHT22;34859;51.608;11.462;2023-05-07T12:17:48;12.30;99.90
49042;DHT22;34859;51.608;11.462;2023-05-07T12:20:14;12.20;99.90
49042;DHT22;34859;51.608;11.462;2023-05-07T12:22:40;12.10;99.90
49042;DHT22;34859;51.608;11.462;2023-05-07T12:25:07;12.10;99.90
49042;DHT22;34859;51.608;11.462;2023-05-07T12:27:36;12.10;99.90
49042;DHT22;34859;51.608;11.462;2023-05-07T12:30:01;12.10;99.90
49042;DHT22;34859;51.608;11.462;2023-05-07T12:32:27;12.20;99.90
49042;DHT22;34859;51.608;11.462;2023-05-07T12:34:53;12.30;99.90
49042;DHT22;34859;51.608;11.462;2023-05-07T12:37:23;12.40;99.90
49042;DHT22;34859;51.608;11.462;2023-05-07T12:39:49;12.40;99.90
49042;DHT22;34859;51.608;11.462;2023-05-07T12:42:15;12.40;99.90
49042;DHT22;34859;51.608;11.462;2023-05-07T12:44:41;12.40;99.90
49042;DHT22;34859;51.608;11.462;2023-05-07T12:47:07;12.30;99.90
49042;DHT22;34859;51.608;11.462;2023-05-07T12:49:34;12.20;99.90
49042;DHT22;34859;51.608;11.462;2023-05-07T12:52:20;12.20;99.90
49042;DHT22;34859;51.608;11.462;2023-05-07T12:55:09;12.20;99.90
49042;DHT22;34859;51.608;11.462;2023-05-07T12:57:54;12.30;99.90
49042;DHT22;34859;51.608;11.462;2023-05-07T13:00:32;12.40;99.90
49042;DHT22;34859;51.608;11.462;2023-05-07T13:02:58;12.40;99.90
49042;DHT22;34859;51.608;11.462;2023-05-07T13:05:23;12.40;99.90
49042;DHT22;34859;51.608;11.462;2023-05-07T13:07:53;12.30;99.90
49042;DHT22;34859;51.608;11.462;2023-05-07T13:10:18;12.30;99.90
49042;DHT22;34859;51.608;11.462;2023-05-07T13:12:44;12.20;99.90
49042;DHT22;34859;51.608;11.462;2023-05-07T13:15:10;12.30;99.90
49042;DHT22;34859;51.608;11.462;2023-05-07T13:17:36;12.30;99.90
49042;DHT22;34859;51.608;11.462;2023-05-07T13:20:02;12.30;99.90
49042;DHT22;34859;51.608;11.462;2023-05-07T13:22:35;12.30;99.90
49042;DHT22;34859;51.608;11.462;2023-05-07T13:25:01;12.40;99.90
49042;DHT22;34859;51.608;11.462;2023-05-07T13:27:27;12.50;99.90
49042;DHT22;34859;51.608;11.462;2023-05-07T13:29:53;12.70;99.90
49042;DHT22;34859;51.608;11.462;2023-05-07T13:32:19;12.80;99.90
49042;DHT22;34859;51.608;11.462;2023-05-07T13:34:44;12.90;99.90
49042;DHT22;34859;51.608;11.462;2023-05-07T13:37:10;12.90;99.90
49042;DHT22;34859;51.608;11.462;2023-05-07T13:39:36;12.80;99.90
49042;DHT22;34859;51.608;11.462;2023-05-07T13:42:02;12.70;99.90
49042;DHT22;34859;51.608;11.462;2023-05-07T13:44:28;12.60;99.90
49042;DHT22;34859;51.608;11.462;2023-05-07T13:46:53;12.50;99.90
49042;DHT22;34859;51.608;11.462;2023-05-07T13:49:19;12.50;99.90
49042;DHT22;34859;51.608;11.462;2023-05-07T13:51:44;12.50;99.90
49042;DHT22;34859;51.608;11.462;2023-05-07T13:54:10;12.50;99.90
49042;DHT22;34859;51.608;11.462;2023-05-07T13:56:37;12.60;99.90
49042;DHT22;34859;51.608;11.462;2023-05-07T13:59:02;12.80;99.90
49042;DHT22;34859;51.608;11.462;2023-05-07T14:01:28;12.80;99.90
49042;DHT22;34859;51.608;11.462;2023-05-07T14:03:54;12.70;99.90
49042;DHT22;34859;51.608;11.462;2023-05-07T14:06:20;12.80;99.90
49042;DHT22;34859;51.608;11.462;2023-05-07T14:08:47;12.70;99.90
49042;DHT22;34859;51.608;11.462;2023-05-07T14:11:12;12.60;99.90
49042;DHT22;34859;51.608;11.462;2023-05-07T14:13:38;12.60;99.90
49042;DHT22;34859;51.608;11.462;2023-05-07T14:16:04;12.70;99.90
49042;DHT22;34859;51.608;11.462;2023-05-07T14:18:29;12.70;99.90
49042;DHT22;34859;51.608;11.462;2023-05-07T14:20:57;12.70;99.90
49042;DHT22;34859;51.608;11.462;2023-05-07T14:23:22;12.80;99.90
49042;DHT22;34859;51.608;11.462;2023-05-07T14:25:54;12.80;99.90
49042;DHT22;34859;51.608;11.462;2023-05-07T14:28:21;12.80;99.90
49042;DHT22;34859;51.608;11.462;2023-05-07T14:30:48;12.70;99.90
49042;DHT22;34859;51.608;11.462;2023-05-07T14:33:13;12.70;99.90
49042;DHT22;34859;51.608;11.462;2023-05-07T14:35:39;12.70;99.90
49042;DHT22;34859;51.608;11.462;2023-05-07T14:38:04;12.80;99.90
49042;DHT22;34859;51.608;11.462;2023-05-07T14:40:30;12.90;99.90
49042;DHT22;34859;51.608;11.462;2023-05-07T14:42:56;13.00;99.90
49042;DHT22;34859;51.608;11.462;2023-05-07T14:45:23;13.00;99.90
49042;DHT22;34859;51.608;11.462;2023-05-07T14:47:48;13.00;99.90
49042;DHT22;34859;51.608;11.462;2023-05-07T14:50:14;13.00;99.90
49042;DHT22;34859;51.608;11.462;2023-05-07T14:52:40;13.00;99.90
49042;DHT22;34859;51.608;11.462;2023-05-07T14:55:07;13.00;99.90
49042;DHT22;34859;51.608;11.462;2023-05-07T14:57:32;13.10;99.90
49042;DHT22;34859;51.608;11.462;2023-05-07T15:00:00;13.00;99.90
49042;DHT22;34859;51.608;11.462;2023-05-07T15:02:29;13.10;99.90
49042;DHT22;34859;51.608;11.462;2023-05-07T15:04:54;13.00;99.90
49042;DHT22;34859;51.608;11.462;2023-05-07T15:07:20;13.10;99.90
49042;DHT22;34859;51.608;11.462;2023-05-07T15:09:46;13.10;99.90
49042;DHT22;34859;51.608;11.462;2023-05-07T15:12:12;13.10;99.90
49042;DHT22;34859;51.608;11.462;2023-05-07T15:14:38;13.10;99.90
49042;DHT22;34859;51.608;11.462;2023-05-07T15:17:04;13.00;99.90
49042;DHT22;34859;51.608;11.462;2023-05-07T15:19:30;13.00;99.90
49042;DHT22;34859;51.608;11.462;2023-05-07T15:22:12;13.00;99.90
49042;DHT22;34859;51.608;11.462;2023-05-07T15:24:38;13.00;99.90
49042;DHT22;34859;51.608;11.462;2023-05-07T15:27:04;12.90;99.90
49042;DHT22;34859;51.608;11.462;2023-05-07T15:29:29;12.80;99.90
49042;DHT22;34859;51.608;11.462;2023-05-07T15:31:57;12.90;99.90
49042;DHT22;34859;51.608;11.462;2023-05-07T15:34:22;12.80;99.90
49042;DHT22;34859;51.608;11.462;2023-05-07T15:36:49;12.80;99.90
49042;DHT22;34859;51.608;11.462;2023-05-07T15:39:16;12.70;99.90